Time;durP1;ratioP1;P1;durP2;ratioP2;P2;SDS_P1;SDS_P2;PMS_P1;PMS_P2;Temp;Humidity;BMP_temperature;BMP_pressure;BME280_temperature;BME280_humidity;BME280_pressure;Samples;Min_cycle;Max_cycle;Signal;HPM_P1;HPM_P2
2024/02/05 00:00:25;;;;;;;;;;;;;;;5.19;95.48;99555.19;136625;1280;22361;-82
2024/02/05 00:03:27;;;;;;;;;;;;;;;5.18;95.89;99554.23;136743;1280;22427;-81
2024/02/05 00:06:29;;;;;;;;;;;;;;;5.19;96.00;99555.33;137068;1277;22429;-82
2024/02/05 00:09:31;;;;;;;;;;;;;;;5.22;95.85;99552.66;137035;1277;23547;-82
2024/02/05 00:12:36;;;;;;;;;;;;;;;5.22;96.35;99545.42;136968;1277;22464;-82
2024/02/05 00:15:50;;;;;;;;;;;;;;;5.22;95.91;99545.42;137137;1277;22426;-82
2024/02/05 00:18:52;;;;;;;;;;;;;;;5.23;96.04;99543.07;137142;1277;22306;-83
2024/02/05 00:22:32;;;;;;;;;;;;;;;5.22;96.11;99543.68;137151;1276;22396;-83
2024/02/05 00:25:33;;;;;;;;;;;;;;;5.22;96.34;99539.64;136866;1277;22340;-82
2024/02/05 00:28:41;;;;;;;;;;;;;;;5.22;96.91;99536.48;137007;1277;22389;-83
2024/02/05 00:31:54;;;;;;;;;;;;;;;5.23;96.70;99533.62;137016;1277;22325;-82
2024/02/05 00:34:57;;;;;;;;;;;;;;;5.23;97.37;99529.55;137172;1277;22271;-82
2024/02/05 00:37:59;;;;;;;;;;;;;;;5.23;97.24;99528.50;137160;1270;22448;-82
2024/02/05 00:41:03;;;;;;;;;;;;;;;5.24;97.09;99519.26;136946;1277;22388;-81
2024/02/05 00:44:10;;;;;;;;;;;;;;;5.25;97.07;99508.30;137176;1277;22501;-82
2024/02/05 00:47:21;;;;;;;;;;;;;;;5.26;97.33;99505.77;137168;1276;22446;-82
2024/02/05 00:50:32;;;;;;;;;;;;;;;5.28;97.34;99499.42;137170;1276;22291;-82
2024/02/05 00:53:46;;;;;;;;;;;;;;;5.29;97.50;99496.01;136956;1276;22423;-82
2024/02/05 00:56:53;;;;;;;;;;;;;;;5.30;97.71;99492.23;136983;1276;22358;-82
2024/02/05 00:59:57;;;;;;;;;;;;;;;5.30;97.56;99493.40;137162;1276;22367;-82
2024/02/05 01:03:02;;;;;;;;;;;;;;;5.31;97.82;99476.01;136917;1276;23627;-81
2024/02/05 01:06:06;;;;;;;;;;;;;;;5.32;97.86;99467.44;136880;1277;22373;-82
2024/02/05 01:09:51;;;;;;;;;;;;;;;5.35;97.85;99467.34;137156;1276;23153;-82
2024/02/05 01:13:09;;;;;;;;;;;;;;;;;;;;;
2024/02/05 01:16:12;;;;;;;;;;;;;;;5.36;98.05;99458.77;137171;1276;23246;-82
2024/02/05 01:19:29;;;;;;;;;;;;;;;;;;;;;
2024/02/05 01:22:30;;;;;;;;;;;;;;;5.36;98.39;99454.76;136952;1276;22333;-82
2024/02/05 01:25:40;;;;;;;;;;;;;;;5.37;98.73;99451.84;136947;1276;23000;-82
2024/02/05 01:28:46;;;;;;;;;;;;;;;5.37;98.51;99440.85;137195;1276;23109;-82
2024/02/05 01:32:17;;;;;;;;;;;;;;;5.37;98.65;99435.70;136998;1268;22273;-82
2024/02/05 01:35:18;;;;;;;;;;;;;;;5.40;98.57;99428.09;136994;1276;22427;-82
2024/02/05 01:38:24;;;;;;;;;;;;;;;5.43;98.64;99426.48;136981;1276;22422;-82
2024/02/05 01:41:33;;;;;;;;;;;;;;;5.45;98.64;99420.41;136940;1276;22337;-82
2024/02/05 01:44:34;;;;;;;;;;;;;;;5.47;98.72;99415.66;137172;1276;23128;-82
2024/02/05 01:47:36;;;;;;;;;;;;;;;5.48;98.95;99412.89;137137;1276;22416;-82
2024/02/05 01:50:38;;;;;;;;;;;;;;;5.47;98.90;99411.09;136963;1276;22424;-82
2024/02/05 01:53:42;;;;;;;;;;;;;;;5.48;99.03;99408.90;136964;1275;22389;-82
2024/02/05 01:56:53;;;;;;;;;;;;;;;5.52;99.10;99400.97;137144;1276;23358;-82
2024/02/05 01:59:58;;;;;;;;;;;;;;;5.56;99.16;99397.12;137182;1276;22388;-82
2024/02/05 02:03:01;;;;;;;;;;;;;;;5.57;99.05;99381.90;136946;1276;23186;-82
2024/02/05 02:06:21;;;;;;;;;;;;;;;;;;;;;
2024/02/05 02:09:25;;;;;;;;;;;;;;;5.66;99.09;99361.02;137136;1276;23043;-82
2024/02/05 02:12:34;;;;;;;;;;;;;;;5.69;99.06;99360.13;137141;1276;22310;-82
2024/02/05 02:15:37;;;;;;;;;;;;;;;5.71;99.01;99346.13;137169;1273;23235;-81
2024/02/05 02:18:39;;;;;;;;;;;;;;;5.72;99.11;99341.64;136934;1276;23201;-82
2024/02/05 02:21:42;;;;;;;;;;;;;;;5.75;99.16;99341.81;136954;1276;23192;-82
2024/02/05 02:24:44;;;;;;;;;;;;;;;5.78;98.94;99340.27;136945;1277;23161;-82
2024/02/05 02:27:48;;;;;;;;;;;;;;;5.81;98.75;99339.42;136989;1276;22431;-81
2024/02/05 02:30:56;;;;;;;;;;;;;;;5.77;98.62;99317.72;136933;1276;22962;-83
2024/02/05 02:34:18;;;;;;;;;;;;;;;5.73;98.65;99303.95;136971;1276;22291;-81
2024/02/05 02:37:29;;;;;;;;;;;;;;;5.68;98.76;99303.90;136982;1276;22351;-82
2024/02/05 02:40:33;;;;;;;;;;;;;;;5.66;98.75;99301.30;136943;1276;23339;-82
2024/02/05 02:43:52;;;;;;;;;;;;;;;;;;;;;
2024/02/05 02:47:01;;;;;;;;;;;;;;;5.67;98.63;99285.07;137096;1276;22457;-82
2024/02/05 02:50:04;;;;;;;;;;;;;;;5.65;98.99;99272.27;137126;1276;22582;-83
2024/02/05 02:53:16;;;;;;;;;;;;;;;;;;;;;
2024/02/05 02:56:18;;;;;;;;;;;;;;;5.59;99.00;99269.70;137165;1276;22279;-83
2024/02/05 02:59:29;;;;;;;;;;;;;;;5.57;99.13;99259.77;136994;1276;22383;-82
2024/02/05 03:02:42;;;;;;;;;;;;;;;5.53;99.17;99253.31;137035;1276;22330;-82
2024/02/05 03:05:47;;;;;;;;;;;;;;;5.53;99.60;99245.84;137165;1276;22417;-82
2024/02/05 03:08:50;;;;;;;;;;;;;;;5.51;99.82;99239.98;136993;1276;22440;-82
2024/02/05 03:11:55;;;;;;;;;;;;;;;5.51;99.88;99234.21;137054;1276;22438;-82
2024/02/05 03:15:02;;;;;;;;;;;;;;;5.51;99.99;99228.96;137006;1276;22417;-82
2024/02/05 03:18:03;;;;;;;;;;;;;;;5.52;100.00;99227.42;137029;1276;22454;-82
2024/02/05 03:21:24;;;;;;;;;;;;;;;5.57;100.00;99222.74;136981;1276;23236;-82
2024/02/05 03:24:31;;;;;;;;;;;;;;;5.61;100.00;99220.34;137182;1276;22422;-82
2024/02/05 03:27:51;;;;;;;;;;;;;;;5.67;100.00;99213.79;137126;1276;23049;-82
2024/02/05 03:30:58;;;;;;;;;;;;;;;5.74;100.00;99218.89;137158;1277;22409;-82
2024/02/05 03:33:59;;;;;;;;;;;;;;;5.83;100.00;99215.86;137174;1276;22446;-82
2024/02/05 03:37:05;;;;;;;;;;;;;;;5.95;100.00;99215.23;137126;1276;22374;-82
2024/02/05 03:40:07;;;;;;;;;;;;;;;6.06;100.00;99206.00;137156;1276;22432;-82
2024/02/05 03:43:16;;;;;;;;;;;;;;;6.19;100.00;99197.38;136791;1276;22439;-82
2024/02/05 03:46:18;;;;;;;;;;;;;;;6.33;100.00;99192.82;137017;1276;22388;-81
2024/02/05 03:49:21;;;;;;;;;;;;;;;6.51;100.00;99189.07;137164;1276;22472;-82
2024/02/05 03:52:27;;;;;;;;;;;;;;;6.73;100.00;99192.73;137189;1267;22382;-81
2024/02/05 03:55:41;;;;;;;;;;;;;;;6.94;100.00;99181.56;137152;1266;22276;-82
2024/02/05 03:58:45;;;;;;;;;;;;;;;7.16;100.00;99178.80;137143;1276;22858;-82
2024/02/05 04:01:48;;;;;;;;;;;;;;;7.37;100.00;99184.62;136988;1276;22394;-82
2024/02/05 04:04:52;;;;;;;;;;;;;;;7.51;100.00;99179.84;137001;1276;22373;-82
2024/02/05 04:08:04;;;;;;;;;;;;;;;7.63;100.00;99181.88;137177;1272;22290;-82
2024/02/05 04:11:05;;;;;;;;;;;;;;;7.75;100.00;99183.59;137148;1276;22455;-81
2024/02/05 04:14:10;;;;;;;;;;;;;;;7.84;100.00;99186.94;137011;1276;22405;-81
2024/02/05 04:17:25;;;;;;;;;;;;;;;;;;;;;
2024/02/05 04:20:29;;;;;;;;;;;;;;;7.96;100.00;99191.19;136718;1273;22429;-82
2024/02/05 04:23:31;;;;;;;;;;;;;;;8.02;100.00;99180.65;136731;1274;22433;-82
2024/02/05 04:26:32;;;;;;;;;;;;;;;8.07;100.00;99187.33;136711;1280;22452;-82
2024/02/05 04:29:33;;;;;;;;;;;;;;;8.11;100.00;99193.97;136729;1280;22463;-82
2024/02/05 04:32:34;;;;;;;;;;;;;;;8.13;100.00;99184.39;136725;1280;22535;-82
2024/02/05 04:35:38;;;;;;;;;;;;;;;8.14;100.00;99182.50;136704;1280;22513;-82
2024/02/05 04:38:41;;;;;;;;;;;;;;;8.17;100.00;99175.00;136639;1280;22506;-82
2024/02/05 04:41:43;;;;;;;;;;;;;;;8.18;100.00;99171.98;136627;1280;22430;-82
2024/02/05 04:44:45;;;;;;;;;;;;;;;8.21;100.00;99174.83;136715;1280;22486;-82
2024/02/05 04:47:48;;;;;;;;;;;;;;;8.25;100.00;99172.62;136714;1280;22420;-82
2024/02/05 04:50:49;;;;;;;;;;;;;;;8.28;100.00;99170.38;136811;1276;22459;-82
2024/02/05 04:53:52;;;;;;;;;;;;;;;8.30;100.00;99168.83;137051;1276;22383;-83
2024/02/05 04:57:03;;;;;;;;;;;;;;;;;;;;;
2024/02/05 05:00:09;;;;;;;;;;;;;;;8.36;100.00;99176.98;137095;1276;23160;-82
2024/02/05 05:03:29;;;;;;;;;;;;;;;8.39;100.00;99178.13;137124;1276;22299;-83
2024/02/05 05:06:44;;;;;;;;;;;;;;;8.38;100.00;99175.50;137076;1276;22410;-83
2024/02/05 05:09:45;;;;;;;;;;;;;;;8.41;100.00;99174.87;137171;1272;22406;-82
2024/02/05 05:12:47;;;;;;;;;;;;;;;8.41;100.00;99176.95;137139;1276;23271;-83
2024/02/05 05:15:48;;;;;;;;;;;;;;;8.44;100.00;99176.13;136982;1276;22475;-83
2024/02/05 05:18:52;;;;;;;;;;;;;;;8.45;100.00;99175.10;137053;1276;22403;-83
2024/02/05 05:21:53;;;;;;;;;;;;;;;8.47;100.00;99168.85;137180;1276;22406;-82
2024/02/05 05:24:56;;;;;;;;;;;;;;;8.48;100.00;99169.80;136849;1276;22509;-83
2024/02/05 05:28:06;;;;;;;;;;;;;;;8.48;100.00;99174.06;137146;1276;22402;-83
2024/02/05 05:31:39;;;;;;;;;;;;;;;;;;;;;
2024/02/05 05:34:53;;;;;;;;;;;;;;;8.50;100.00;99188.33;137102;1276;22438;-83
2024/02/05 05:37:57;;;;;;;;;;;;;;;8.51;100.00;99190.66;137132;1276;22393;-84
2024/02/05 05:41:17;;;;;;;;;;;;;;;8.53;100.00;99190.25;137045;1276;22388;-81
2024/02/05 05:44:18;;;;;;;;;;;;;;;8.53;100.00;99203.23;137105;1276;22456;-82
2024/02/05 05:47:40;;;;;;;;;;;;;;;8.53;100.00;99205.55;137144;1276;22518;-84
2024/02/05 05:50:46;;;;;;;;;;;;;;;8.55;100.00;99224.05;136992;1276;22293;-82
2024/02/05 05:54:09;;;;;;;;;;;;;;;8.54;100.00;99230.44;137129;1276;22284;-83
2024/02/05 05:57:14;;;;;;;;;;;;;;;8.53;100.00;99230.77;136846;1276;22418;-83
2024/02/05 06:00:18;;;;;;;;;;;;;;;8.52;100.00;99232.79;137174;1276;22458;-84
2024/02/05 06:04:06;;;;;;;;;;;;;;;8.51;100.00;99236.77;136978;1276;22408;-84
2024/02/05 06:07:45;;;;;;;;;;;;;;;;;;;;;
2024/02/05 06:12:02;;;;;;;;;;;;;;;8.50;100.00;99249.40;137024;1276;22424;-84
2024/02/05 06:15:17;;;;;;;;;;;;;;;;;;;;;
2024/02/05 06:18:46;;;;;;;;;;;;;;;8.48;100.00;99261.27;137110;1276;22486;-83
2024/02/05 06:22:11;;;;;;;;;;;;;;;8.47;100.00;99265.68;136986;1276;22359;-83
2024/02/05 06:25:18;;;;;;;;;;;;;;;8.45;100.00;99273.12;137149;1276;22282;-82
2024/02/05 06:28:21;;;;;;;;;;;;;;;8.43;100.00;99269.02;137103;1276;22543;-83
2024/02/05 06:31:23;;;;;;;;;;;;;;;8.44;100.00;99272.16;137033;1276;22384;-82
2024/02/05 06:34:50;;;;;;;;;;;;;;;;;;;;;
2024/02/05 06:38:12;;;;;;;;;;;;;;;;;;;;;
2024/02/05 06:41:38;;;;;;;;;;;;;;;8.41;100.00;99294.16;137117;1276;22429;-83
2024/02/05 06:44:53;;;;;;;;;;;;;;;8.41;100.00;99299.23;137087;1276;22412;-82
2024/02/05 06:48:15;;;;;;;;;;;;;;;8.41;100.00;99299.67;137126;1276;22331;-82
2024/02/05 06:51:28;;;;;;;;;;;;;;;8.42;100.00;99306.95;137084;1276;23045;-82
2024/02/05 06:54:32;;;;;;;;;;;;;;;8.43;100.00;99314.56;136999;1276;22336;-82
2024/02/05 06:57:44;;;;;;;;;;;;;;;8.44;100.00;99322.80;137125;1276;22461;-81
2024/02/05 07:01:19;;;;;;;;;;;;;;;;;;;;;
2024/02/05 07:05:17;;;;;;;;;;;;;;;8.45;100.00;99325.59;137002;1276;22437;-82
2024/02/05 07:08:32;;;;;;;;;;;;;;;;;;;;;
2024/02/05 07:11:53;;;;;;;;;;;;;;;8.48;100.00;99341.48;137088;1276;22419;-82
2024/02/05 07:14:56;;;;;;;;;;;;;;;8.48;100.00;99340.23;136976;1276;23122;-83
2024/02/05 07:17:59;;;;;;;;;;;;;;;8.49;100.00;99345.11;137093;1276;22381;-83
2024/02/05 07:21:04;;;;;;;;;;;;;;;8.49;100.00;99349.43;137091;1276;22414;-82
2024/02/05 07:24:10;;;;;;;;;;;;;;;8.50;100.00;99353.28;136859;1276;22328;-82
2024/02/05 07:27:21;;;;;;;;;;;;;;;8.50;100.00;99352.52;137045;1276;22295;-82
2024/02/05 07:30:40;;;;;;;;;;;;;;;;;;;;;
2024/02/05 07:38:39;;;;;;;;;;;;;;;;;;;;;
2024/02/05 07:42:10;;;;;;;;;;;;;;;8.55;100.00;99358.57;136933;1276;23108;-81
2024/02/05 07:45:52;;;;;;;;;;;;;;;8.56;100.00;99360.25;137100;1276;23107;-83
2024/02/05 07:49:22;;;;;;;;;;;;;;;8.55;100.00;99362.27;137076;1276;22396;-83
2024/02/05 07:52:55;;;;;;;;;;;;;;;;;;;;;
2024/02/05 08:00:06;;;;;;;;;;;;;;;8.58;100.00;99366.33;136889;1276;22428;-83
2024/02/05 08:03:58;;;;;;;;;;;;;;;8.62;100.00;99371.86;137099;1276;22451;-83
2024/02/05 08:07:26;;;;;;;;;;;;;;;8.65;100.00;99369.64;137029;1276;22496;-85
2024/02/05 08:11:03;;;;;;;;;;;;;;;8.65;100.00;99370.14;137070;1276;22425;-83
2024/02/05 08:15:06;;;;;;;;;;;;;;;;;;;;;
2024/02/05 08:18:55;;;;;;;;;;;;;;;;;;;;;
2024/02/05 08:22:49;;;;;;;;;;;;;;;;;;;;;
2024/02/05 08:26:01;;;;;;;;;;;;;;;;;;;;;
2024/02/05 08:29:48;;;;;;;;;;;;;;;8.64;100.00;99381.50;137102;1276;22429;-82
2024/02/05 08:33:44;;;;;;;;;;;;;;;;;;;;;
2024/02/05 08:38:05;;;;;;;;;;;;;;;8.67;100.00;99374.15;137110;1276;22391;-83
2024/02/05 08:42:06;;;;;;;;;;;;;;;8.70;100.00;99383.95;136932;1276;22450;-83
2024/02/05 08:45:31;;;;;;;;;;;;;;;;;;;;;
2024/02/05 08:53:49;;;;;;;;;;;;;;;8.74;100.00;99388.50;137058;1276;22464;-83
2024/02/05 08:57:06;;;;;;;;;;;;;;;;;;;;;
2024/02/05 09:00:50;;;;;;;;;;;;;;;8.70;100.00;99392.41;136914;1276;22466;-84
2024/02/05 09:04:28;;;;;;;;;;;;;;;8.69;100.00;99393.94;137128;1276;22352;-83
2024/02/05 09:08:06;;;;;;;;;;;;;;;;;;;;;
2024/02/05 09:12:07;;;;;;;;;;;;;;;;;;;;;
2024/02/05 09:20:15;;;;;;;;;;;;;;;;;;;;;
2024/02/05 09:24:10;;;;;;;;;;;;;;;;;;;;;
2024/02/05 09:28:10;;;;;;;;;;;;;;;8.77;100.00;99414.08;136377;1284;22448;-83
2024/02/05 09:31:54;;;;;;;;;;;;;;;;;;;;;
2024/02/05 09:35:54;;;;;;;;;;;;;;;;;;;;;
2024/02/05 09:39:40;;;;;;;;;;;;;;;8.84;100.00;99414.68;136837;1276;23176;-84
2024/02/05 09:42:57;;;;;;;;;;;;;;;8.86;100.00;99412.48;137123;1276;22414;-84
2024/02/05 09:46:25;;;;;;;;;;;;;;;8.88;100.00;99413.73;137011;1270;22328;-84
2024/02/05 09:49:57;;;;;;;;;;;;;;;8.90;100.00;99414.58;136576;1281;22414;-84
2024/02/05 09:53:18;;;;;;;;;;;;;;;8.92;100.00;99410.80;136429;1283;22450;-84
2024/02/05 09:56:43;;;;;;;;;;;;;;;8.96;100.00;99413.70;136224;1287;22486;-84
2024/02/05 10:00:11;;;;;;;;;;;;;;;8.99;100.00;99404.35;136175;1288;22419;-85
2024/02/05 10:03:43;;;;;;;;;;;;;;;9.00;100.00;99401.27;136196;1284;22453;-84
2024/02/05 10:07:19;;;;;;;;;;;;;;;;;;;;;
2024/02/05 10:14:49;;;;;;;;;;;;;;;;;;;;;
2024/02/05 10:18:12;;;;;;;;;;;;;;;;;;;;;
2024/02/05 10:22:04;;;;;;;;;;;;;;;;;;;;;
2024/02/05 10:29:44;;;;;;;;;;;;;;;;;;;;;
2024/02/05 10:33:38;;;;;;;;;;;;;;;;;;;;;
2024/02/05 10:37:25;;;;;;;;;;;;;;;;;;;;;
2024/02/05 10:41:07;;;;;;;;;;;;;;;9.26;100.00;99396.01;137224;1276;22300;-86
2024/02/05 10:44:41;;;;;;;;;;;;;;;9.28;100.00;99398.39;137148;1276;22493;-85
2024/02/05 10:48:08;;;;;;;;;;;;;;;9.31;100.00;99397.17;136918;1276;22415;-85
2024/02/05 10:51:30;;;;;;;;;;;;;;;9.32;100.00;99392.44;137221;1276;22466;-86
2024/02/05 10:55:12;;;;;;;;;;;;;;;;;;;;;
2024/02/05 10:59:44;;;;;;;;;;;;;;;9.37;100.00;99394.55;136488;1283;22440;-85
2024/02/05 11:03:19;;;;;;;;;;;;;;;;;;;;;
2024/02/05 11:06:48;;;;;;;;;;;;;;;9.41;100.00;99388.80;136546;1282;22312;-88
2024/02/05 11:10:34;;;;;;;;;;;;;;;;;;;;;
2024/02/05 11:18:01;;;;;;;;;;;;;;;9.47;100.00;99386.07;136537;1283;22456;-81
2024/02/05 11:21:37;;;;;;;;;;;;;;;;;;;;;
2024/02/05 11:25:19;;;;;;;;;;;;;;;9.45;100.00;99379.03;136776;1276;22437;-81
2024/02/05 11:29:00;;;;;;;;;;;;;;;9.42;100.00;99377.20;137029;1276;22357;-82
2024/02/05 11:32:40;;;;;;;;;;;;;;;;;;;;;
2024/02/05 11:36:27;;;;;;;;;;;;;;;;;;;;;
2024/02/05 11:48:36;;;;;;;;;;;;;;;;;;;;;
2024/02/05 11:52:14;;;;;;;;;;;;;;;9.47;100.00;99365.06;137124;1276;22455;-82
2024/02/05 11:55:36;;;;;;;;;;;;;;;9.48;100.00;99363.73;136601;1280;22441;-81
2024/02/05 11:58:39;;;;;;;;;;;;;;;9.48;100.00;99371.19;136543;1281;22427;-82
2024/02/05 12:01:43;;;;;;;;;;;;;;;9.48;100.00;99373.51;136597;1281;22510;-81
2024/02/05 12:05:06;;;;;;;;;;;;;;;9.50;100.00;99364.79;136404;1284;22447;-81
2024/02/05 12:08:07;;;;;;;;;;;;;;;9.54;100.00;99370.52;136405;1283;22432;-82
2024/02/05 12:11:11;;;;;;;;;;;;;;;9.55;100.00;99369.00;136444;1284;22477;-81
2024/02/05 12:14:20;;;;;;;;;;;;;;;9.55;100.00;99367.63;136407;1284;22449;-81
2024/02/05 12:17:21;;;;;;;;;;;;;;;9.52;100.00;99365.80;136402;1284;22463;-84
2024/02/05 12:24:26;;;;;;;;;;;;;;;;;;;;;
2024/02/05 12:28:23;;;;;;;;;;;;;;;9.43;100.00;99384.88;136409;1284;22442;-80
2024/02/05 12:31:39;;;;;;;;;;;;;;;;;;;;;
2024/02/05 12:35:08;;;;;;;;;;;;;;;;;;;;;
2024/02/05 12:38:20;;;;;;;;;;;;;;;9.38;100.00;99403.90;136477;1281;22452;-79
2024/02/05 12:42:08;;;;;;;;;;;;;;;;;;;;;
2024/02/05 12:45:32;;;;;;;;;;;;;;;9.43;99.32;99388.55;137040;1276;22378;-80
2024/02/05 12:48:36;;;;;;;;;;;;;;;9.47;98.80;99391.86;137163;1276;22265;-80
2024/02/05 12:51:41;;;;;;;;;;;;;;;9.49;98.75;99400.39;137168;1276;22400;-79
2024/02/05 12:54:59;;;;;;;;;;;;;;;9.51;98.04;99393.89;136607;1281;22547;-81
2024/02/05 12:58:25;;;;;;;;;;;;;;;9.53;97.06;99388.35;136470;1282;22449;-79
2024/02/05 13:01:26;;;;;;;;;;;;;;;9.58;95.74;99391.28;136557;1282;22465;-79
2024/02/05 13:04:47;;;;;;;;;;;;;;;9.61;94.98;99393.50;136399;1285;22533;-78
2024/02/05 13:07:49;;;;;;;;;;;;;;;9.66;94.52;99397.77;136401;1284;22510;-79
2024/02/05 13:10:53;;;;;;;;;;;;;;;9.70;94.11;99402.77;136400;1285;22441;-78
2024/02/05 13:13:55;;;;;;;;;;;;;;;9.74;94.10;99402.23;136340;1285;22537;-79
2024/02/05 13:17:14;;;;;;;;;;;;;;;9.77;93.22;99398.40;136206;1280;22475;-79
2024/02/05 13:20:34;;;;;;;;;;;;;;;9.80;92.49;99403.91;136219;1287;22468;-82
2024/02/05 13:24:10;;;;;;;;;;;;;;;;;;;;;
2024/02/05 13:27:46;;;;;;;;;;;;;;;9.81;91.48;99423.34;136437;1282;23581;-80
2024/02/05 13:31:24;;;;;;;;;;;;;;;;;;;;;
2024/02/05 13:34:42;;;;;;;;;;;;;;;;;;;;;
2024/02/05 13:38:25;;;;;;;;;;;;;;;9.69;91.21;99429.16;136567;1281;23169;-79
2024/02/05 13:42:07;;;;;;;;;;;;;;;;;;;;;
2024/02/05 13:45:52;;;;;;;;;;;;;;;;;;;;;
2024/02/05 13:49:28;;;;;;;;;;;;;;;;;;;;;
2024/02/05 13:52:39;;;;;;;;;;;;;;;9.58;90.27;99428.70;136581;1281;22603;-79
2024/02/05 13:56:23;;;;;;;;;;;;;;;;;;;;;
2024/02/05 13:59:51;;;;;;;;;;;;;;;;;;;;;
2024/02/05 14:03:44;;;;;;;;;;;;;;;;;;;;;
2024/02/05 14:07:15;;;;;;;;;;;;;;;9.41;89.84;99446.48;137073;1276;23241;-79
2024/02/05 14:10:51;;;;;;;;;;;;;;;;;;;;;
2024/02/05 14:14:41;;;;;;;;;;;;;;;;;;;;;
2024/02/05 14:18:14;;;;;;;;;;;;;;;;;;;;;
2024/02/05 14:22:49;;;;;;;;;;;;;;;9.27;90.98;99462.75;136779;1280;23284;-79
2024/02/05 14:26:01;;;;;;;;;;;;;;;;;;;;;
2024/02/05 14:29:45;;;;;;;;;;;;;;;9.16;91.21;99475.42;136774;1280;22406;-79
2024/02/05 14:33:56;;;;;;;;;;;;;;;;;;;;;
2024/02/05 14:37:07;;;;;;;;;;;;;;;9.12;91.20;99471.04;136672;1280;23507;-79
2024/02/05 14:40:19;;;;;;;;;;;;;;;9.09;91.34;99475.52;136796;1280;23254;-79
2024/02/05 14:47:19;;;;;;;;;;;;;;;9.03;91.59;99482.98;137110;1276;22453;-79
2024/02/05 14:50:20;;;;;;;;;;;;;;;9.01;91.48;99481.91;137142;1276;23618;-80
2024/02/05 14:53:20;;;;;;;;;;;;;;;9.01;91.25;99481.94;137106;1277;23076;-78
2024/02/05 14:56:39;;;;;;;;;;;;;;;9.04;90.85;99478.85;136936;1276;23225;-80
2024/02/05 15:00:21;;;;;;;;;;;;;;;;;;;;;
2024/02/05 15:03:59;;;;;;;;;;;;;;;9.12;89.62;99475.05;136992;1277;22473;-79
2024/02/05 15:07:30;;;;;;;;;;;;;;;9.14;89.63;99490.46;137139;1276;22400;-79
2024/02/05 15:10:36;;;;;;;;;;;;;;;9.15;89.09;99492.91;137147;1277;22300;-80
2024/02/05 15:14:15;;;;;;;;;;;;;;;9.15;89.54;99500.13;136816;1277;22445;-80
2024/02/05 15:17:16;;;;;;;;;;;;;;;9.14;89.17;99503.25;136975;1277;22420;-79
2024/02/05 15:20:23;;;;;;;;;;;;;;;9.14;88.89;99505.04;137178;1273;22271;-81
2024/02/05 15:23:24;;;;;;;;;;;;;;;9.14;89.04;99501.25;137167;1276;22436;-80
2024/02/05 15:26:37;;;;;;;;;;;;;;;9.14;88.69;99505.73;136963;1277;22447;-80
2024/02/05 15:30:28;;;;;;;;;;;;;;;;;;;;;
2024/02/05 15:34:48;;;;;;;;;;;;;;;9.20;88.22;99507.98;137178;1277;22394;-79
2024/02/05 15:37:56;;;;;;;;;;;;;;;;;;;;;
2024/02/05 15:42:07;;;;;;;;;;;;;;;9.27;86.30;99501.90;137103;1276;23426;-80
2024/02/05 15:45:17;;;;;;;;;;;;;;;9.33;85.79;99506.40;137167;1276;23148;-79
2024/02/05 15:48:54;;;;;;;;;;;;;;;;;;;;;
2024/02/05 15:52:38;;;;;;;;;;;;;;;;;;;;;
2024/02/05 15:55:50;;;;;;;;;;;;;;;9.36;85.35;99515.85;137143;1276;22298;-80
2024/02/05 15:58:55;;;;;;;;;;;;;;;9.36;85.26;99519.63;136960;1277;22993;-80
2024/02/05 16:01:56;;;;;;;;;;;;;;;9.36;85.26;99521.61;137172;1276;23053;-80
2024/02/05 16:04:58;;;;;;;;;;;;;;;9.34;84.91;99521.13;137138;1277;23174;-79
2024/02/05 16:07:59;;;;;;;;;;;;;;;9.35;84.63;99523.47;136983;1277;22394;-79
2024/02/05 16:11:01;;;;;;;;;;;;;;;9.37;84.66;99523.55;137132;1276;22446;-80
2024/02/05 16:14:03;;;;;;;;;;;;;;;9.39;83.81;99515.90;136973;1277;23517;-79
2024/02/05 16:17:07;;;;;;;;;;;;;;;9.42;83.67;99521.54;136969;1277;22393;-80
2024/02/05 16:20:09;;;;;;;;;;;;;;;9.43;83.62;99521.11;136947;1277;22457;-80
2024/02/05 16:23:10;;;;;;;;;;;;;;;9.43;83.47;99524.98;137095;1273;22389;-82
2024/02/05 16:26:13;;;;;;;;;;;;;;;9.43;83.54;99524.46;136965;1277;22404;-80
2024/02/05 16:29:17;;;;;;;;;;;;;;;9.43;83.43;99515.84;137103;1277;22371;-82
2024/02/05 16:32:20;;;;;;;;;;;;;;;9.43;83.36;99520.09;137152;1276;22584;-79
2024/02/05 16:35:34;;;;;;;;;;;;;;;9.42;82.91;99523.20;137104;1276;22369;-79
2024/02/05 16:38:35;;;;;;;;;;;;;;;9.42;82.57;99524.05;137153;1277;22403;-80
2024/02/05 16:41:58;;;;;;;;;;;;;;;;;;;;;
2024/02/05 16:45:35;;;;;;;;;;;;;;;;;;;;;
2024/02/05 16:49:09;;;;;;;;;;;;;;;;;;;;;
2024/02/05 16:52:51;;;;;;;;;;;;;;;;;;;;;
2024/02/05 16:55:51;;;;;;;;;;;;;;;9.45;81.87;99559.23;137175;1273;22363;-80
2024/02/05 16:58:52;;;;;;;;;;;;;;;9.43;82.11;99555.20;137200;1276;22454;-80
2024/02/05 17:01:55;;;;;;;;;;;;;;;9.40;82.11;99549.55;137166;1276;22480;-80
2024/02/05 17:04:56;;;;;;;;;;;;;;;9.39;81.74;99537.69;137167;1276;22459;-79
2024/02/05 17:07:57;;;;;;;;;;;;;;;9.39;81.64;99530.36;136984;1276;22419;-79
2024/02/05 17:11:16;;;;;;;;;;;;;;;;;;;;;
2024/02/05 17:14:45;;;;;;;;;;;;;;;9.37;81.60;99539.15;137037;1276;22435;-80
2024/02/05 17:18:20;;;;;;;;;;;;;;;9.36;81.62;99548.46;137209;1276;22426;-80
2024/02/05 17:21:49;;;;;;;;;;;;;;;9.35;81.60;99554.84;137149;1276;22522;-80
2024/02/05 17:24:56;;;;;;;;;;;;;;;9.34;81.49;99560.97;137131;1275;22290;-79
2024/02/05 17:27:57;;;;;;;;;;;;;;;9.33;81.41;99562.33;136967;1276;22399;-80
2024/02/05 17:30:59;;;;;;;;;;;;;;;9.32;81.32;99566.29;137004;1276;22423;-79
2024/02/05 17:33:59;;;;;;;;;;;;;;;9.32;81.33;99563.99;137198;1276;22497;-79
2024/02/05 17:37:01;;;;;;;;;;;;;;;9.33;80.93;99557.40;137172;1276;23167;-80
2024/02/05 17:40:13;;;;;;;;;;;;;;;;;;;;;
2024/02/05 17:44:13;;;;;;;;;;;;;;;9.32;81.24;99561.34;136905;1276;23072;-80
2024/02/05 17:47:29;;;;;;;;;;;;;;;;;;;;;
2024/02/05 17:50:55;;;;;;;;;;;;;;;9.30;81.32;99560.36;137143;1276;22434;-82
2024/02/05 17:54:42;;;;;;;;;;;;;;;9.31;81.18;99556.58;137176;1276;22433;-80
2024/02/05 17:58:18;;;;;;;;;;;;;;;;;;;;;
2024/02/05 18:01:44;;;;;;;;;;;;;;;9.32;81.27;99565.48;137163;1276;22443;-80
2024/02/05 18:05:33;;;;;;;;;;;;;;;9.33;81.04;99565.55;137166;1270;22492;-80
2024/02/05 18:09:00;;;;;;;;;;;;;;;9.33;81.27;99572.72;136962;1276;22445;-79
2024/02/05 18:12:23;;;;;;;;;;;;;;;;;;;;;
2024/02/05 18:16:12;;;;;;;;;;;;;;;;;;;;;
2024/02/05 18:19:41;;;;;;;;;;;;;;;;;;;;;
2024/02/05 18:23:40;;;;;;;;;;;;;;;9.26;81.83;99567.89;137108;1276;22520;-80
2024/02/05 18:27:22;;;;;;;;;;;;;;;9.22;81.78;99566.70;137138;1276;22456;-80
2024/02/05 18:31:17;;;;;;;;;;;;;;;9.21;81.84;99561.02;137169;1276;23493;-81
2024/02/05 18:34:44;;;;;;;;;;;;;;;9.21;81.86;99561.21;136961;1276;22489;-78
2024/02/05 18:37:59;;;;;;;;;;;;;;;9.22;81.73;99564.86;137161;1276;22412;-78
2024/02/05 18:41:38;;;;;;;;;;;;;;;9.25;82.09;99566.77;137149;1276;23438;-76
2024/02/05 18:44:44;;;;;;;;;;;;;;;9.25;81.84;99565.17;137147;1276;22296;-76
2024/02/05 18:47:47;;;;;;;;;;;;;;;9.25;81.88;99561.44;137175;1276;23152;-77
2024/02/05 18:50:55;;;;;;;;;;;;;;;9.27;81.55;99557.40;137161;1276;22440;-77
2024/02/05 18:54:08;;;;;;;;;;;;;;;9.27;81.41;99557.86;137165;1276;22262;-76
2024/02/05 18:57:15;;;;;;;;;;;;;;;9.27;81.44;99553.83;137136;1276;22302;-78
2024/02/05 19:00:15;;;;;;;;;;;;;;;9.26;81.62;99551.67;137166;1276;22429;-82
2024/02/05 19:03:27;;;;;;;;;;;;;;;9.25;81.77;99556.54;137119;1276;22393;-76
2024/02/05 19:06:30;;;;;;;;;;;;;;;9.24;81.71;99557.88;137189;1276;22285;-74
2024/02/05 19:09:33;;;;;;;;;;;;;;;9.25;81.74;99559.75;137176;1276;22450;-75
2024/02/05 19:12:38;;;;;;;;;;;;;;;9.24;81.71;99563.16;137165;1276;22312;-77
2024/02/05 19:15:39;;;;;;;;;;;;;;;9.22;81.72;99565.73;137175;1276;22399;-75
2024/02/05 19:18:45;;;;;;;;;;;;;;;9.18;81.98;99562.59;137136;1276;23561;-75
2024/02/05 19:21:48;;;;;;;;;;;;;;;9.15;82.06;99561.14;137163;1273;22297;-76
2024/02/05 19:24:49;;;;;;;;;;;;;;;9.11;82.10;99558.24;137148;1277;23177;-75
2024/02/05 19:27:53;;;;;;;;;;;;;;;9.08;82.21;99562.13;137108;1276;22411;-75
2024/02/05 19:30:54;;;;;;;;;;;;;;;9.05;82.28;99561.56;137144;1277;22378;-75
2024/02/05 19:33:57;;;;;;;;;;;;;;;9.03;82.52;99558.80;137146;1277;22548;-77
2024/02/05 19:36:58;;;;;;;;;;;;;;;9.02;82.53;99560.30;137147;1276;22413;-75
2024/02/05 19:39:58;;;;;;;;;;;;;;;9.02;82.43;99557.69;137151;1276;22420;-76
2024/02/05 19:43:00;;;;;;;;;;;;;;;9.04;82.68;99555.23;137132;1276;22475;-76
2024/02/05 19:46:01;;;;;;;;;;;;;;;9.04;82.65;99548.98;137167;1269;22388;-77
2024/02/05 19:49:05;;;;;;;;;;;;;;;9.04;82.65;99549.34;137135;1276;22381;-76
2024/02/05 19:52:06;;;;;;;;;;;;;;;9.04;82.69;99544.45;137102;1273;22406;-75
2024/02/05 19:55:10;;;;;;;;;;;;;;;9.04;82.71;99551.66;137090;1276;23137;-77